createdAt,value
2018-04-02T00:00:20.965Z,8.63
2018-04-02T00:02:46.905Z,8.78
2018-04-02T00:05:12.827Z,8.66
2018-04-02T00:07:38.812Z,8.43
2018-04-02T00:10:04.734Z,8.74
2018-04-02T00:12:30.681Z,8.76
2018-04-02T00:14:56.599Z,8.43
2018-04-02T00:17:22.519Z,8.29
2018-04-02T00:19:48.457Z,8.50
2018-04-02T00:22:14.380Z,8.28
2018-04-02T00:24:40.321Z,8.23
2018-04-02T00:27:06.269Z,8.44
2018-04-02T00:29:32.387Z,8.17
2018-04-02T00:31:58.325Z,8.22
2018-04-02T00:34:24.241Z,8.11
2018-04-02T00:36:50.170Z,8.27
2018-04-02T00:39:16.097Z,8.28
2018-04-02T00:41:42.044Z,8.42
2018-04-02T00:44:07.965Z,8.43
2018-04-02T00:46:33.933Z,8.57
2018-04-02T00:48:59.875Z,8.41
2018-04-02T00:51:25.836Z,8.52
2018-04-02T00:53:51.763Z,8.37
2018-04-02T00:56:17.694Z,8.13
2018-04-02T00:58:43.621Z,8.62
2018-04-02T01:01:09.546Z,8.37
2018-04-02T01:03:35.523Z,8.12
2018-04-02T01:06:01.483Z,8.08
2018-04-02T01:08:27.437Z,8.17
2018-04-02T01:10:53.354Z,8.27
2018-04-02T01:13:19.325Z,8.45
2018-04-02T01:15:45.293Z,8.20
2018-04-02T01:18:11.266Z,8.36
2018-04-02T01:20:37.206Z,8.39
2018-04-02T01:23:03.308Z,8.55
2018-04-02T01:25:29.250Z,8.42
2018-04-02T01:27:55.172Z,8.48
2018-04-02T01:30:21.094Z,8.25
2018-04-02T01:32:47.090Z,8.69
2018-04-02T01:35:13.017Z,8.62
2018-04-02T01:37:38.951Z,8.35
2018-04-02T01:40:05.211Z,8.20
2018-04-02T01:42:31.142Z,8.31
2018-04-02T01:44:57.067Z,8.22
2018-04-02T01:47:22.989Z,8.34
2018-04-02T01:49:48.908Z,8.28
2018-04-02T01:52:14.867Z,8.42
2018-04-02T01:54:40.830Z,8.52
2018-04-02T01:57:06.810Z,8.58
2018-04-02T01:59:32.754Z,8.51
2018-04-02T02:01:58.726Z,8.77
2018-04-02T02:04:24.691Z,8.52
2018-04-02T02:06:50.906Z,8.36
2018-04-02T02:09:16.844Z,8.34
2018-04-02T02:11:42.782Z,8.59
2018-04-02T02:14:08.726Z,8.50
2018-04-02T02:16:34.654Z,8.48
2018-04-02T02:19:00.602Z,8.33
2018-04-02T02:21:26.526Z,8.56
2018-04-02T02:23:52.494Z,8.43
2018-04-02T02:26:18.438Z,8.24
2018-04-02T02:28:44.402Z,8.21
2018-04-02T02:31:10.335Z,8.31
2018-04-02T02:33:36.306Z,8.47
2018-04-02T02:36:02.257Z,8.29
2018-04-02T02:38:28.520Z,8.41
2018-04-02T02:40:54.440Z,8.47
2018-04-02T02:43:20.388Z,8.48
2018-04-02T02:45:46.306Z,8.22
2018-04-02T02:48:12.250Z,8.28
2018-04-02T02:50:38.190Z,8.23
2018-04-02T02:53:04.124Z,8.40
2018-04-02T02:55:30.089Z,8.34
2018-04-02T02:57:56.025Z,8.20
2018-04-02T03:00:21.980Z,8.13
2018-04-02T03:02:47.925Z,8.13
2018-04-02T03:05:13.900Z,8.44
2018-04-02T03:07:39.823Z,8.04
2018-04-02T03:10:05.734Z,8.17
2018-04-02T03:12:31.654Z,8.17
2018-04-02T03:14:57.632Z,8.23
2018-04-02T03:17:23.574Z,8.32
2018-04-02T03:19:49.713Z,8.15
2018-04-02T03:22:15.663Z,8.11
2018-04-02T03:24:41.585Z,8.22
2018-04-02T03:27:07.521Z,8.29
2018-04-02T03:29:33.450Z,8.32
2018-04-02T03:31:59.382Z,8.27
2018-04-02T03:34:25.303Z,8.34
2018-04-02T03:36:51.236Z,8.47
2018-04-02T03:39:17.184Z,8.34
2018-04-02T03:41:43.127Z,8.12
2018-04-02T03:44:09.046Z,8.02
2018-04-02T03:46:34.984Z,8.14
2018-04-02T03:49:00.927Z,8.06
2018-04-02T03:51:26.858Z,8.09
2018-04-02T03:53:52.812Z,7.85
2018-04-02T03:56:19.053Z,7.68
2018-04-02T03:58:45.025Z,7.81
2018-04-02T04:01:10.968Z,7.67
2018-04-02T04:03:36.909Z,7.88
2018-04-02T04:06:02.839Z,7.78
2018-04-02T04:08:29.050Z,7.85
2018-04-02T04:10:55.017Z,7.86
2018-04-02T04:13:20.979Z,7.85
2018-04-02T04:15:46.902Z,8.02
2018-04-02T04:18:12.862Z,7.74
2018-04-02T04:20:38.803Z,7.92
2018-04-02T04:23:04.747Z,7.66
2018-04-02T04:25:30.681Z,7.88
2018-04-02T04:27:56.618Z,7.73
2018-04-02T04:30:22.579Z,7.47
2018-04-02T04:32:48.527Z,7.66
2018-04-02T04:35:14.474Z,7.61
2018-04-02T04:37:40.725Z,7.54
2018-04-02T04:40:06.667Z,7.60
2018-04-02T04:42:32.609Z,7.64
2018-04-02T04:44:58.553Z,7.53
2018-04-02T04:47:24.506Z,7.57
2018-04-02T04:49:50.435Z,7.74
2018-04-02T04:52:16.396Z,7.47
2018-04-02T04:54:42.391Z,7.48
2018-04-02T04:57:08.327Z,7.58
2018-04-02T04:59:34.366Z,7.68
2018-04-02T05:02:00.294Z,7.70
2018-04-02T05:04:26.220Z,7.58
2018-04-02T05:06:52.141Z,7.58
2018-04-02T05:09:18.085Z,7.45
2018-04-02T05:11:44.038Z,7.55
2018-04-02T05:14:09.985Z,7.69
2018-04-02T05:16:35.914Z,7.46
2018-04-02T05:19:01.859Z,7.58
2018-04-02T05:21:27.815Z,7.52
2018-04-02T05:23:53.735Z,7.53
2018-04-02T05:26:19.679Z,7.56
2018-04-02T05:28:45.835Z,7.57
2018-04-02T05:31:11.773Z,7.89
2018-04-02T05:33:37.705Z,8.00
2018-04-02T05:36:03.652Z,8.13
2018-04-02T05:38:29.717Z,8.08
2018-04-02T05:40:55.709Z,8.09
2018-04-02T05:43:21.595Z,8.07
2018-04-02T05:45:47.525Z,8.29
2018-04-02T05:48:13.447Z,8.48
2018-04-02T05:50:39.411Z,8.42
2018-04-02T05:53:05.337Z,8.44
2018-04-02T05:55:31.261Z,8.64
2018-04-02T05:57:57.307Z,8.65
2018-04-02T06:00:23.265Z,9.16
2018-04-02T06:02:49.211Z,9.17
2018-04-02T06:05:15.239Z,9.13
2018-04-02T06:07:41.143Z,9.40
2018-04-02T06:10:07.090Z,9.57
2018-04-02T06:12:33.035Z,9.76
2018-04-02T06:14:58.973Z,10.12
2018-04-02T06:17:24.935Z,10.29
2018-04-02T06:19:50.863Z,10.25
2018-04-02T06:22:16.798Z,10.21
2018-04-02T06:24:42.910Z,10.16
2018-04-02T06:27:08.868Z,9.74
2018-04-02T06:29:34.794Z,9.85
2018-04-02T06:32:00.761Z,9.97
2018-04-02T06:34:26.679Z,9.91
2018-04-02T06:36:52.632Z,9.53
2018-04-02T06:39:18.554Z,9.29
2018-04-02T06:41:44.522Z,8.95
2018-04-02T06:44:10.474Z,9.35
2018-04-02T06:46:36.447Z,9.33
2018-04-02T06:49:02.382Z,9.53
2018-04-02T06:51:28.343Z,9.58
2018-04-02T06:53:54.319Z,9.61
2018-04-02T06:56:20.250Z,9.70
2018-04-02T06:58:46.337Z,9.77
2018-04-02T07:01:12.276Z,9.59
2018-04-02T07:03:38.245Z,9.60
2018-04-02T07:06:04.230Z,9.92
2018-04-02T07:08:30.221Z,9.84
2018-04-02T07:10:56.260Z,9.84
2018-04-02T07:13:22.206Z,9.97
2018-04-02T07:15:48.148Z,9.94
2018-04-02T07:18:14.428Z,9.98
2018-04-02T07:20:40.388Z,10.08
2018-04-02T07:23:06.385Z,10.03
2018-04-02T07:25:32.286Z,10.29
2018-04-02T07:27:58.253Z,10.62
2018-04-02T07:30:24.178Z,10.92
2018-04-02T07:32:50.122Z,10.97
2018-04-02T07:35:16.075Z,11.03
2018-04-02T07:37:42.040Z,11.18
2018-04-02T07:40:07.973Z,11.10
2018-04-02T07:42:33.894Z,11.05
2018-04-02T07:44:59.882Z,10.96
2018-04-02T07:47:25.865Z,10.83
2018-04-02T07:49:51.851Z,10.75
2018-04-02T07:52:17.778Z,10.74
2018-04-02T07:54:43.768Z,10.68
2018-04-02T07:57:09.757Z,10.67
2018-04-02T07:59:35.708Z,10.54
2018-04-02T08:02:01.664Z,10.47
2018-04-02T08:04:27.647Z,10.56
2018-04-02T08:06:53.574Z,10.48
2018-04-02T08:09:19.522Z,10.50
2018-04-02T08:11:45.473Z,10.45
2018-04-02T08:14:11.408Z,10.45
2018-04-02T08:16:37.361Z,10.37
2018-04-02T08:19:03.314Z,10.45
2018-04-02T08:21:29.307Z,10.44
2018-04-02T08:23:55.238Z,10.35
2018-04-02T08:26:21.223Z,10.46
2018-04-02T08:28:47.161Z,10.44
2018-04-02T08:31:13.173Z,10.58
2018-04-02T08:33:39.095Z,10.57
2018-04-02T08:36:05.183Z,10.58
2018-04-02T08:38:31.132Z,10.52
2018-04-02T08:40:57.509Z,10.54
2018-04-02T08:43:23.467Z,10.59
2018-04-02T08:45:49.421Z,10.68
2018-04-02T08:48:15.370Z,10.58
2018-04-02T08:50:41.339Z,10.59
2018-04-02T08:53:07.308Z,10.69
2018-04-02T08:55:33.260Z,10.63
2018-04-02T08:57:59.254Z,10.78
2018-04-02T09:00:25.283Z,10.64
2018-04-02T09:02:51.211Z,10.63
2018-04-02T09:05:17.158Z,10.72
2018-04-02T09:07:43.171Z,10.71
2018-04-02T09:10:09.141Z,10.68
2018-04-02T09:12:35.101Z,10.72
2018-04-02T09:15:01.061Z,10.61
2018-04-02T09:17:26.990Z,10.77
2018-04-02T09:19:52.942Z,10.80
2018-04-02T09:22:18.868Z,10.83
2018-04-02T09:24:44.865Z,10.74
2018-04-02T09:27:10.797Z,10.90
2018-04-02T09:29:36.759Z,10.86
2018-04-02T09:32:02.725Z,10.91
2018-04-02T09:34:28.673Z,10.98
2018-04-02T09:36:54.626Z,10.99
2018-04-02T09:39:20.569Z,11.16
2018-04-02T09:41:46.512Z,11.17
2018-04-02T09:44:12.449Z,11.25
2018-04-02T09:46:38.377Z,11.24
2018-04-02T09:49:04.316Z,11.36
2018-04-02T09:51:30.254Z,11.52
2018-04-02T09:53:56.179Z,11.47
2018-04-02T09:56:22.196Z,11.58
2018-04-02T09:58:48.174Z,11.62
2018-04-02T10:01:14.094Z,11.62
2018-04-02T10:03:40.072Z,11.53
2018-04-02T10:06:06.031Z,11.61
2018-04-02T10:08:32.020Z,11.64
2018-04-02T10:10:57.967Z,11.69
2018-04-02T10:13:23.923Z,11.68
2018-04-02T10:15:49.910Z,11.81
2018-04-02T10:18:15.842Z,11.82
2018-04-02T10:20:41.801Z,11.83
2018-04-02T10:23:07.724Z,11.83
2018-04-02T10:25:33.652Z,11.86
2018-04-02T10:27:59.612Z,11.75
2018-04-02T10:30:25.564Z,11.77
2018-04-02T10:32:51.499Z,11.77
2018-04-02T10:35:17.473Z,11.90
2018-04-02T10:37:43.417Z,11.94
2018-04-02T10:40:09.401Z,11.79
2018-04-02T10:42:35.348Z,11.77
2018-04-02T10:45:01.328Z,11.86
2018-04-02T10:47:27.252Z,11.74
2018-04-02T10:49:53.198Z,11.93
2018-04-02T10:52:19.321Z,11.89
2018-04-02T10:54:45.332Z,11.87
2018-04-02T10:57:11.282Z,11.79
2018-04-02T10:59:37.325Z,11.85
2018-04-02T11:02:04.334Z,11.97
2018-04-02T11:04:30.291Z,11.97
2018-04-02T11:06:56.846Z,11.96
2018-04-02T11:09:22.827Z,12.04
2018-04-02T11:11:48.780Z,12.06
2018-04-02T11:14:14.722Z,12.15
2018-04-02T11:16:40.660Z,12.06
2018-04-02T11:19:06.582Z,12.08
2018-04-02T11:21:32.521Z,12.14
2018-04-02T11:23:58.479Z,12.14
2018-04-02T11:26:24.405Z,11.99
2018-04-02T11:28:50.503Z,12.08
2018-04-02T11:31:16.436Z,12.03
2018-04-02T11:33:42.361Z,12.04
2018-04-02T11:36:08.317Z,12.08
2018-04-02T11:38:34.269Z,12.16
2018-04-02T11:41:00.204Z,12.02
2018-04-02T11:43:26.157Z,12.01
2018-04-02T11:45:52.095Z,12.08
2018-04-02T11:48:18.049Z,12.01
2018-04-02T11:50:43.997Z,11.98
2018-04-02T11:53:09.948Z,12.08
2018-04-02T11:55:35.901Z,12.14
2018-04-02T11:58:01.846Z,12.20
2018-04-02T12:00:27.818Z,12.32
2018-04-02T12:02:53.754Z,12.39
2018-04-02T12:05:19.700Z,12.47
2018-04-02T12:07:45.637Z,12.44
2018-04-02T12:10:11.625Z,12.42
2018-04-02T12:12:37.579Z,12.54
2018-04-02T12:15:03.529Z,12.53
2018-04-02T12:17:29.798Z,12.54
2018-04-02T12:19:55.739Z,12.63
2018-04-02T12:22:21.685Z,12.62
2018-04-02T12:24:47.622Z,12.67
2018-04-02T12:27:13.550Z,12.68
2018-04-02T12:29:39.515Z,12.61
2018-04-02T12:32:05.491Z,12.61
2018-04-02T12:34:31.441Z,12.71
2018-04-02T12:36:57.391Z,12.45
2018-04-02T12:39:23.334Z,12.55
2018-04-02T12:41:49.287Z,12.66
2018-04-02T12:44:15.217Z,12.80
2018-04-02T12:46:41.216Z,12.84
2018-04-02T12:49:07.246Z,12.89
2018-04-02T12:51:33.183Z,12.80
2018-04-02T12:53:59.121Z,12.79
2018-04-02T12:56:25.055Z,12.80
2018-04-02T12:58:50.985Z,12.77
2018-04-02T13:01:16.928Z,12.69
2018-04-02T13:03:42.879Z,12.75
2018-04-02T13:06:08.830Z,12.81
2018-04-02T13:08:34.839Z,12.82
2018-04-02T13:11:00.799Z,12.69
2018-04-02T13:13:26.756Z,12.76
2018-04-02T13:15:52.702Z,12.77
2018-04-02T13:18:18.653Z,12.88
2018-04-02T13:20:44.659Z,12.79
2018-04-02T13:23:10.641Z,12.95
2018-04-02T13:25:36.586Z,13.02
2018-04-02T13:28:02.558Z,12.96
2018-04-02T13:30:28.490Z,13.02
2018-04-02T13:32:55.466Z,12.94
2018-04-02T13:35:21.388Z,12.89
2018-04-02T13:37:47.352Z,12.83
2018-04-02T13:40:13.294Z,12.94
2018-04-02T13:42:39.254Z,12.98
2018-04-02T13:45:05.218Z,13.01
2018-04-02T13:47:32.470Z,13.03
2018-04-02T13:49:58.426Z,13.03
2018-04-02T13:52:24.380Z,12.98
2018-04-02T13:54:50.410Z,13.04
2018-04-02T13:57:16.338Z,13.04
2018-04-02T13:59:42.299Z,12.90
2018-04-02T14:02:08.256Z,12.95
2018-04-02T14:04:34.195Z,12.99
2018-04-02T14:07:00.146Z,13.05
2018-04-02T14:09:26.094Z,13.02
2018-04-02T14:11:52.026Z,13.05
2018-04-02T14:14:17.962Z,13.04
2018-04-02T14:16:43.899Z,13.08
2018-04-02T14:19:09.847Z,13.09
2018-04-02T14:21:35.799Z,13.09
2018-04-02T14:24:01.736Z,13.01
2018-04-02T14:26:27.682Z,13.11
2018-04-02T14:28:53.655Z,13.10
2018-04-02T14:31:19.637Z,13.11
2018-04-02T14:33:45.563Z,13.08
2018-04-02T14:36:11.522Z,13.12
2018-04-02T14:38:37.467Z,13.15
2018-04-02T14:41:03.446Z,12.99
2018-04-02T14:43:29.385Z,13.06
2018-04-02T14:45:55.392Z,13.15
2018-04-02T14:48:21.416Z,13.14
2018-04-02T14:50:47.497Z,13.04
2018-04-02T14:53:13.790Z,13.08
2018-04-02T14:55:39.786Z,13.12
2018-04-02T14:58:05.776Z,13.18
2018-04-02T15:00:33.094Z,13.08
2018-04-02T15:02:59.061Z,13.06
2018-04-02T15:05:25.015Z,13.16
2018-04-02T15:07:50.956Z,13.21
2018-04-02T15:10:18.002Z,13.21
2018-04-02T15:12:43.959Z,13.22
2018-04-02T15:15:09.887Z,13.26
2018-04-02T15:17:35.855Z,13.25
2018-04-02T15:20:01.814Z,13.23
2018-04-02T15:22:27.744Z,13.23
2018-04-02T15:24:53.743Z,13.25
2018-04-02T15:27:19.693Z,13.22
2018-04-02T15:29:45.654Z,13.14
2018-04-02T15:32:11.635Z,13.09
2018-04-02T15:34:37.589Z,13.14
2018-04-02T15:37:03.589Z,13.17
2018-04-02T15:39:29.519Z,13.15
2018-04-02T15:41:55.663Z,13.22
2018-04-02T15:44:21.610Z,13.30
2018-04-02T15:46:47.551Z,13.29
2018-04-02T15:49:13.527Z,13.28
2018-04-02T15:51:39.484Z,13.29
2018-04-02T15:54:05.518Z,13.07
2018-04-02T15:56:31.476Z,13.23
2018-04-02T15:58:57.470Z,13.17
2018-04-02T16:01:23.414Z,13.15
2018-04-02T16:03:49.400Z,13.10
2018-04-02T16:06:15.388Z,13.18
2018-04-02T16:08:41.359Z,13.13
2018-04-02T16:11:07.341Z,13.18
2018-04-02T16:13:34.310Z,13.20
2018-04-02T16:16:00.307Z,13.16
2018-04-02T16:18:26.430Z,13.17
2018-04-02T16:20:52.385Z,13.19
2018-04-02T16:23:18.331Z,13.20
2018-04-02T16:25:44.279Z,13.21
2018-04-02T16:28:10.212Z,13.19
2018-04-02T16:30:36.220Z,13.17
2018-04-02T16:33:02.270Z,13.18
2018-04-02T16:35:28.342Z,13.21
2018-04-02T16:37:54.338Z,13.15
2018-04-02T16:40:20.310Z,13.15
2018-04-02T16:42:46.328Z,13.14
2018-04-02T16:45:12.283Z,13.19
2018-04-02T16:47:38.224Z,13.17
2018-04-02T16:50:04.180Z,13.15
2018-04-02T16:52:30.255Z,13.20
2018-04-02T17:01:42.116Z,13.12
2018-04-02T17:04:08.068Z,13.09
2018-04-02T17:06:34.048Z,13.17
2018-04-02T17:09:00.098Z,13.14
2018-04-02T17:11:26.059Z,13.09
2018-04-02T17:13:52.022Z,13.06
2018-04-02T17:16:17.966Z,13.02
2018-04-02T17:18:43.977Z,13.01
2018-04-02T17:21:09.919Z,13.07
2018-04-02T17:23:35.874Z,12.96
2018-04-02T17:26:01.800Z,12.95
2018-04-02T17:28:27.752Z,12.89
2018-04-02T17:30:53.672Z,12.87
2018-04-02T17:33:19.674Z,12.77
2018-04-02T17:35:45.634Z,12.76
2018-04-02T17:38:11.672Z,12.83
2018-04-02T17:40:37.634Z,12.87
2018-04-02T17:43:03.660Z,12.78
2018-04-02T17:45:29.578Z,12.75
2018-04-02T17:47:57.806Z,12.69
2018-04-02T17:50:23.918Z,12.63
2018-04-02T17:52:49.852Z,12.49
2018-04-02T17:55:15.891Z,12.56
2018-04-02T17:57:41.843Z,12.38
2018-04-02T18:00:08.019Z,12.56
2018-04-02T18:02:33.952Z,12.46
2018-04-02T18:05:01.912Z,12.43
2018-04-02T18:07:27.879Z,12.37
2018-04-02T18:09:53.847Z,12.24
2018-04-02T18:12:20.079Z,12.26
2018-04-02T18:14:46.009Z,12.34
2018-04-02T18:17:11.959Z,12.25
2018-04-02T18:19:37.970Z,12.22
2018-04-02T18:22:03.876Z,12.26
2018-04-02T18:24:30.001Z,12.11
2018-04-02T18:26:56.031Z,12.05
2018-04-02T18:29:22.056Z,12.01
2018-04-02T18:31:48.078Z,12.15
2018-04-02T18:34:14.101Z,12.29
2018-04-02T18:36:40.116Z,12.08
2018-04-02T18:39:06.143Z,12.27
2018-04-02T18:41:32.178Z,12.38
2018-04-02T18:43:58.183Z,12.39
2018-04-02T18:46:24.455Z,12.45
2018-04-02T18:48:50.446Z,12.40
2018-04-02T18:51:16.498Z,12.37
2018-04-02T18:53:43.546Z,11.85
2018-04-02T18:56:09.644Z,11.93
2018-04-02T18:58:35.734Z,12.08
2018-04-02T19:01:01.702Z,12.18
2018-04-02T19:03:27.730Z,12.39
2018-04-02T19:05:54.769Z,12.41
2018-04-02T19:08:20.801Z,12.37
2018-04-02T19:10:47.856Z,12.27
2018-04-02T19:13:13.971Z,12.07
2018-04-02T19:15:41.013Z,12.00
2018-04-02T19:18:07.095Z,11.61
2018-04-02T19:20:33.076Z,11.40
2018-04-02T19:22:59.401Z,11.35
2018-04-02T19:25:25.407Z,11.23
2018-04-02T19:27:52.371Z,11.38
2018-04-02T19:30:18.662Z,11.45
2018-04-02T19:32:44.647Z,11.40
2018-04-02T19:35:10.609Z,11.26
2018-04-02T19:37:36.557Z,11.27
2018-04-02T19:40:02.534Z,11.14
2018-04-02T19:42:28.501Z,11.15
2018-04-02T19:44:54.424Z,11.27
2018-04-02T19:47:20.355Z,11.32
2018-04-02T19:49:46.329Z,11.66
2018-04-02T19:52:12.305Z,11.50
2018-04-02T19:54:38.237Z,11.38
2018-04-02T19:57:04.178Z,11.15
2018-04-02T19:59:30.130Z,11.09
2018-04-02T20:01:56.286Z,10.98
2018-04-02T20:04:22.308Z,10.76
2018-04-02T20:06:48.266Z,11.10
2018-04-02T20:09:14.195Z,11.26
2018-04-02T20:11:40.134Z,11.28
2018-04-02T20:14:06.123Z,11.50
2018-04-02T20:16:32.062Z,11.55
2018-04-02T20:18:58.015Z,11.42
2018-04-02T20:21:23.994Z,11.62
2018-04-02T20:23:49.921Z,11.50
2018-04-02T20:26:16.312Z,11.47
2018-04-02T20:28:42.331Z,11.18
2018-04-02T20:31:08.253Z,10.88
2018-04-02T20:33:34.194Z,11.04
2018-04-02T20:36:00.134Z,11.17
2018-04-02T20:38:26.106Z,11.21
2018-04-02T20:40:52.056Z,11.13
2018-04-02T20:43:18.039Z,10.99
2018-04-02T20:45:44.034Z,11.08
2018-04-02T20:48:09.966Z,10.85
2018-04-02T20:50:35.918Z,11.12
2018-04-02T20:53:01.930Z,11.05
2018-04-02T20:55:27.870Z,11.17
2018-04-02T20:57:53.839Z,11.23
2018-04-02T21:00:19.766Z,10.84
2018-04-02T21:02:45.709Z,10.91
2018-04-02T21:05:11.640Z,11.11
2018-04-02T21:07:37.611Z,10.98
2018-04-02T21:10:03.544Z,10.95
2018-04-02T21:12:29.562Z,10.91
2018-04-02T21:14:55.522Z,11.17
2018-04-02T21:17:21.535Z,11.17
2018-04-02T21:19:47.818Z,11.11
2018-04-02T21:22:13.782Z,11.07
2018-04-02T21:24:39.718Z,10.92
2018-04-02T21:27:05.670Z,10.90
2018-04-02T21:29:31.615Z,10.93
2018-04-02T21:31:57.566Z,10.88
2018-04-02T21:34:23.513Z,11.05
2018-04-02T21:36:49.442Z,11.02
2018-04-02T21:39:15.409Z,11.11
2018-04-02T21:41:41.362Z,10.95
2018-04-02T21:44:07.306Z,10.93
2018-04-02T21:46:33.270Z,11.03
2018-04-02T21:48:59.232Z,10.98
2018-04-02T21:51:25.218Z,10.98
2018-04-02T21:53:51.128Z,10.89
2018-04-02T21:56:17.058Z,11.15
2018-04-02T21:58:42.986Z,10.92
2018-04-02T22:01:08.908Z,10.96
2018-04-02T22:03:34.871Z,11.02
2018-04-02T22:06:00.818Z,11.02
2018-04-02T22:08:26.743Z,11.04
2018-04-02T22:10:52.664Z,11.03
2018-04-02T22:13:18.614Z,10.93
2018-04-02T22:15:44.636Z,10.93
2018-04-02T22:18:10.598Z,11.05
2018-04-02T22:20:36.526Z,10.85
2018-04-02T22:23:02.469Z,10.82
2018-04-02T22:25:28.394Z,10.80
2018-04-02T22:27:54.318Z,10.97
2018-04-02T22:30:20.274Z,10.96
2018-04-02T22:32:46.225Z,11.01
2018-04-02T22:35:12.186Z,10.98
2018-04-02T22:37:38.131Z,11.02
2018-04-02T22:40:04.189Z,10.82
2018-04-02T22:42:30.153Z,11.04
2018-04-02T22:44:56.097Z,10.94
2018-04-02T22:47:22.055Z,10.84
2018-04-02T22:49:47.981Z,11.01
2018-04-02T22:52:13.960Z,10.97
2018-04-02T22:54:39.886Z,10.80
2018-04-02T22:57:05.836Z,10.68
2018-04-02T22:59:31.793Z,10.66
2018-04-02T23:01:57.718Z,10.69
2018-04-02T23:04:23.828Z,10.63
2018-04-02T23:06:49.752Z,10.76
2018-04-02T23:09:15.677Z,10.58
2018-04-02T23:11:41.770Z,10.69
2018-04-02T23:14:07.687Z,10.90
2018-04-02T23:16:33.620Z,10.83
2018-04-02T23:18:59.598Z,10.71
2018-04-02T23:21:25.524Z,10.68
2018-04-02T23:23:51.480Z,10.64
2018-04-02T23:26:17.424Z,10.53
2018-04-02T23:28:43.735Z,10.70
2018-04-02T23:31:09.713Z,10.72
2018-04-02T23:33:35.649Z,10.64
2018-04-02T23:36:01.621Z,10.57
2018-04-02T23:38:27.538Z,10.65
2018-04-02T23:40:53.487Z,10.62
2018-04-02T23:43:19.449Z,10.71
2018-04-02T23:45:45.403Z,10.81
2018-04-02T23:48:11.347Z,10.66
2018-04-02T23:50:37.333Z,10.86
2018-04-02T23:53:03.454Z,10.76
2018-04-02T23:55:29.395Z,10.88
2018-04-02T23:57:55.335Z,10.74
